createdAt,value
2018-12-31T00:00:11.233Z,15.48
2018-12-31T00:02:40.417Z,19.17
2018-12-31T00:05:09.168Z,17.90
2018-12-31T00:07:37.848Z,18.55
2018-12-31T00:10:06.337Z,18.35
2018-12-31T00:12:34.751Z,18.80
2018-12-31T00:15:03.499Z,21.25
2018-12-31T00:17:31.916Z,20.85
2018-12-31T00:20:00.562Z,20.40
2018-12-31T00:22:28.958Z,20.82
2018-12-31T00:24:57.390Z,20.50
2018-12-31T00:27:25.786Z,19.57
2018-12-31T00:29:54.186Z,19.95
2018-12-31T00:32:22.870Z,19.00
2018-12-31T00:34:51.268Z,19.55
2018-12-31T00:37:19.661Z,19.77
2018-12-31T00:39:48.081Z,20.25
2018-12-31T00:42:16.796Z,20.82
2018-12-31T00:44:45.200Z,39.08
2018-12-31T00:47:13.958Z,18.70
2018-12-31T00:49:42.367Z,19.62
2018-12-31T00:52:11.031Z,17.60
2018-12-31T00:54:39.705Z,17.95
2018-12-31T00:57:08.100Z,18.12
2018-12-31T00:59:36.775Z,17.05
2018-12-31T01:02:05.203Z,17.17
2018-12-31T01:04:33.954Z,16.02
2018-12-31T01:07:02.447Z,16.77
2018-12-31T01:09:30.853Z,17.77
2018-12-31T01:11:59.587Z,18.23
2018-12-31T01:14:27.982Z,15.23
2018-12-31T01:16:56.397Z,15.75
2018-12-31T01:19:24.789Z,16.42
2018-12-31T01:21:53.421Z,15.60
2018-12-31T01:24:21.830Z,16.12
2018-12-31T01:26:50.475Z,16.20
2018-12-31T01:29:18.869Z,15.32
2018-12-31T01:31:47.281Z,16.20
2018-12-31T01:34:16.022Z,17.07
2018-12-31T01:36:44.425Z,16.48
2018-12-31T01:39:12.851Z,15.63
2018-12-31T01:41:41.869Z,17.25
2018-12-31T01:44:10.473Z,16.32
2018-12-31T01:46:38.884Z,16.77
2018-12-31T01:49:07.288Z,15.68
2018-12-31T01:51:35.682Z,16.48
2018-12-31T01:54:04.096Z,15.43
2018-12-31T01:56:32.489Z,17.27
2018-12-31T01:59:00.884Z,15.03
2018-12-31T02:01:29.297Z,13.98
2018-12-31T02:03:57.704Z,12.95
2018-12-31T02:06:26.105Z,13.40
2018-12-31T02:08:54.527Z,14.80
2018-12-31T02:11:22.924Z,13.13
2018-12-31T02:13:51.318Z,12.33
2018-12-31T02:16:19.733Z,13.85
2018-12-31T02:18:48.373Z,13.00
2018-12-31T02:21:17.056Z,12.30
2018-12-31T02:23:45.474Z,13.00
2018-12-31T02:26:13.866Z,14.10
2018-12-31T02:28:42.521Z,12.28
2018-12-31T02:31:10.929Z,12.63
2018-12-31T02:33:39.320Z,12.82
2018-12-31T02:36:07.951Z,13.10
2018-12-31T02:38:36.368Z,13.08
2018-12-31T02:41:04.767Z,13.53
2018-12-31T02:43:33.160Z,13.65
2018-12-31T02:46:01.868Z,12.13
2018-12-31T02:48:30.271Z,13.53
2018-12-31T02:50:58.676Z,13.32
2018-12-31T02:53:27.075Z,13.95
2018-12-31T02:55:55.502Z,14.40
2018-12-31T02:58:23.880Z,12.93
2018-12-31T03:00:52.283Z,13.00
2018-12-31T03:03:20.690Z,12.55
2018-12-31T03:05:49.411Z,12.25
2018-12-31T03:08:17.817Z,13.50
2018-12-31T03:10:46.217Z,12.50
2018-12-31T03:13:14.957Z,14.78
2018-12-31T03:15:43.354Z,13.65
2018-12-31T03:18:12.032Z,14.30
2018-12-31T03:20:40.447Z,12.85
2018-12-31T03:23:08.841Z,13.60
2018-12-31T03:25:37.564Z,13.70
2018-12-31T03:28:06.221Z,13.48
2018-12-31T03:30:34.942Z,14.23
2018-12-31T03:33:03.509Z,14.93
2018-12-31T03:35:32.106Z,15.58
2018-12-31T03:38:00.793Z,14.00
2018-12-31T03:40:29.571Z,12.68
2018-12-31T03:42:57.979Z,12.35
2018-12-31T03:45:26.647Z,12.82
2018-12-31T03:47:55.058Z,13.35
2018-12-31T03:50:23.463Z,13.38
2018-12-31T03:52:52.102Z,14.00
2018-12-31T03:55:20.880Z,13.90
2018-12-31T03:57:49.275Z,12.93
2018-12-31T04:00:17.941Z,13.13
2018-12-31T04:02:47.077Z,11.83
2018-12-31T04:05:15.506Z,13.50
2018-12-31T04:07:43.901Z,13.60
2018-12-31T04:10:12.321Z,13.30
2018-12-31T04:12:40.736Z,12.43
2018-12-31T04:15:09.176Z,12.90
2018-12-31T04:17:37.585Z,12.25
2018-12-31T04:20:05.981Z,11.12
2018-12-31T04:22:34.681Z,12.60
2018-12-31T04:25:03.111Z,12.35
2018-12-31T04:27:31.745Z,11.28
2018-12-31T04:30:00.267Z,9.35
2018-12-31T04:32:28.644Z,10.10
2018-12-31T04:34:57.040Z,8.93
2018-12-31T04:37:25.780Z,9.40
2018-12-31T04:39:54.458Z,8.08
2018-12-31T04:42:22.852Z,8.80
2018-12-31T04:44:51.256Z,9.40
2018-12-31T04:47:19.655Z,8.68
2018-12-31T04:49:48.379Z,8.75
2018-12-31T04:52:16.806Z,9.08
2018-12-31T04:54:45.182Z,8.20
2018-12-31T04:57:13.575Z,9.00
2018-12-31T04:59:41.986Z,8.75
2018-12-31T05:02:10.620Z,8.65
2018-12-31T05:04:39.016Z,8.65
2018-12-31T05:07:07.427Z,9.03
2018-12-31T05:09:35.812Z,8.25
2018-12-31T05:12:04.205Z,8.50
2018-12-31T05:14:32.617Z,8.50
2018-12-31T05:17:01.015Z,8.98
2018-12-31T05:19:29.748Z,7.72
2018-12-31T05:21:58.491Z,8.53
2018-12-31T05:24:26.825Z,7.97
2018-12-31T05:26:55.220Z,7.58
2018-12-31T05:29:23.625Z,8.25
2018-12-31T05:31:52.025Z,8.35
2018-12-31T05:34:20.415Z,6.80
2018-12-31T05:36:49.115Z,9.28
2018-12-31T05:39:17.800Z,9.80
2018-12-31T05:41:46.255Z,9.08
2018-12-31T05:44:14.672Z,10.70
2018-12-31T05:46:43.066Z,9.50
2018-12-31T05:49:11.458Z,7.70
2018-12-31T05:51:39.873Z,10.05
2018-12-31T05:54:08.264Z,8.98
2018-12-31T05:56:36.662Z,11.38
2018-12-31T05:59:05.078Z,10.98
2018-12-31T06:01:33.468Z,13.00
2018-12-31T06:04:01.868Z,14.00
2018-12-31T06:06:30.517Z,12.53
2018-12-31T06:08:58.916Z,14.63
2018-12-31T06:11:27.645Z,14.78
2018-12-31T06:13:56.054Z,12.47
2018-12-31T06:16:24.710Z,13.43
2018-12-31T06:18:53.131Z,14.73
2018-12-31T06:21:21.524Z,14.28
2018-12-31T06:23:49.923Z,14.40
2018-12-31T06:26:18.335Z,14.83
2018-12-31T06:28:46.724Z,14.20
2018-12-31T06:31:15.396Z,14.33
2018-12-31T06:33:43.807Z,14.70
2018-12-31T06:36:12.458Z,14.63
2018-12-31T06:38:40.867Z,14.70
2018-12-31T06:41:09.276Z,14.50
2018-12-31T06:43:37.674Z,15.00
2018-12-31T06:46:06.084Z,15.65
2018-12-31T06:48:34.761Z,16.45
2018-12-31T06:51:03.445Z,14.98
2018-12-31T06:53:31.858Z,16.15
2018-12-31T06:56:00.516Z,15.48
2018-12-31T06:58:28.914Z,15.08
2018-12-31T07:00:57.571Z,14.50
2018-12-31T07:03:26.263Z,15.18
2018-12-31T07:05:54.666Z,14.90
2018-12-31T07:08:23.071Z,15.43
2018-12-31T07:10:51.823Z,15.13
2018-12-31T07:13:20.494Z,13.85
2018-12-31T07:15:48.895Z,13.32
2018-12-31T07:18:17.311Z,13.40
2018-12-31T07:20:45.710Z,15.28
2018-12-31T07:23:14.104Z,14.15
2018-12-31T07:25:42.519Z,14.85
2018-12-31T07:28:10.916Z,14.00
2018-12-31T07:30:39.314Z,14.85
2018-12-31T07:33:07.723Z,15.00
2018-12-31T07:35:36.120Z,15.13
2018-12-31T07:38:04.529Z,14.23
2018-12-31T07:40:32.932Z,16.25
2018-12-31T07:43:01.331Z,14.58
2018-12-31T07:45:29.738Z,15.23
2018-12-31T07:47:58.139Z,14.10
2018-12-31T07:50:28.159Z,15.50
2018-12-31T07:52:57.008Z,15.30
2018-12-31T07:55:25.698Z,15.85
2018-12-31T07:57:54.112Z,16.57
2018-12-31T08:00:22.500Z,19.75
2018-12-31T08:02:51.241Z,12.47
2018-12-31T08:05:19.647Z,13.20
2018-12-31T08:07:48.047Z,9.55
2018-12-31T08:10:16.437Z,9.63
2018-12-31T08:12:44.831Z,8.10
2018-12-31T08:15:13.235Z,8.65
2018-12-31T08:17:41.927Z,7.95
2018-12-31T08:20:10.553Z,6.50
2018-12-31T08:22:39.290Z,6.50
2018-12-31T08:25:07.700Z,6.70
2018-12-31T08:27:36.088Z,6.40
2018-12-31T08:30:05.965Z,6.10
2018-12-31T08:32:34.610Z,6.35
2018-12-31T08:35:03.070Z,6.12
2018-12-31T08:37:31.715Z,5.62
2018-12-31T08:40:00.241Z,5.72
2018-12-31T08:42:28.587Z,5.87
2018-12-31T08:44:56.981Z,5.03
2018-12-31T08:47:25.628Z,5.08
2018-12-31T08:49:54.034Z,4.42
2018-12-31T08:52:22.429Z,4.70
2018-12-31T08:54:50.828Z,4.90
2018-12-31T08:57:19.231Z,4.70
2018-12-31T08:59:47.629Z,5.22
2018-12-31T09:02:16.029Z,5.45
2018-12-31T09:04:44.420Z,5.60
2018-12-31T09:07:12.811Z,5.30
2018-12-31T09:09:41.266Z,6.40
2018-12-31T09:12:09.938Z,5.72
2018-12-31T09:14:38.332Z,5.75
2018-12-31T09:17:06.736Z,5.90
2018-12-31T09:19:35.123Z,6.80
2018-12-31T09:22:03.520Z,6.50
2018-12-31T09:24:31.908Z,6.45
2018-12-31T09:27:00.296Z,6.37
2018-12-31T09:29:28.711Z,6.35
2018-12-31T09:31:57.383Z,7.10
2018-12-31T09:34:26.063Z,6.50
2018-12-31T09:36:54.475Z,7.20
2018-12-31T09:39:22.913Z,6.80
2018-12-31T09:41:51.301Z,6.40
2018-12-31T09:44:19.990Z,7.70
2018-12-31T09:46:48.675Z,7.85
2018-12-31T09:49:17.065Z,8.13
2018-12-31T09:51:45.457Z,7.70
2018-12-31T09:54:14.107Z,7.65
2018-12-31T09:56:42.501Z,7.58
2018-12-31T09:59:11.184Z,7.87
2018-12-31T10:01:39.591Z,7.33
2018-12-31T10:04:07.985Z,7.58
2018-12-31T10:06:36.370Z,7.50
2018-12-31T10:09:06.645Z,7.60
2018-12-31T10:11:35.291Z,6.72
2018-12-31T10:14:03.918Z,7.80
2018-12-31T10:16:32.602Z,7.20
2018-12-31T10:19:01.007Z,7.75
2018-12-31T10:21:29.636Z,7.42
2018-12-31T10:23:58.033Z,7.92
2018-12-31T10:26:26.450Z,8.35
2018-12-31T10:28:54.846Z,7.67
2018-12-31T10:31:23.232Z,7.92
2018-12-31T10:33:51.716Z,7.28
2018-12-31T10:36:20.347Z,8.18
2018-12-31T10:38:51.207Z,7.62
2018-12-31T10:41:19.460Z,7.28
2018-12-31T10:43:47.858Z,7.67
2018-12-31T10:46:16.247Z,8.18
2018-12-31T10:48:44.655Z,8.15
2018-12-31T10:51:13.297Z,9.15
2018-12-31T10:53:41.674Z,7.97
2018-12-31T10:56:10.083Z,8.00
2018-12-31T10:58:38.900Z,8.30
2018-12-31T11:01:07.288Z,8.48
2018-12-31T11:03:35.745Z,8.60
2018-12-31T11:06:04.129Z,8.05
2018-12-31T11:08:32.521Z,8.73
2018-12-31T11:11:00.938Z,8.75
2018-12-31T11:13:29.610Z,8.10
2018-12-31T11:15:58.005Z,8.93
2018-12-31T11:18:26.406Z,7.65
2018-12-31T11:20:55.159Z,8.20
2018-12-31T11:23:23.579Z,7.67
2018-12-31T11:25:51.957Z,8.27
2018-12-31T11:28:20.369Z,9.20
2018-12-31T11:30:48.753Z,8.60
2018-12-31T11:33:17.137Z,9.40
2018-12-31T11:35:45.543Z,9.35
2018-12-31T11:38:14.015Z,9.63
2018-12-31T11:40:43.092Z,10.17
2018-12-31T11:43:11.597Z,9.57
2018-12-31T11:45:39.979Z,9.60
2018-12-31T11:48:08.393Z,10.28
2018-12-31T11:50:37.166Z,10.10
2018-12-31T11:53:05.551Z,11.50
2018-12-31T11:55:33.941Z,11.97
2018-12-31T11:58:02.679Z,9.90
2018-12-31T12:00:31.075Z,11.47
2018-12-31T12:02:59.467Z,11.90
2018-12-31T12:05:27.864Z,11.73
2018-12-31T12:07:56.606Z,10.37
2018-12-31T12:10:25.295Z,12.33
2018-12-31T12:12:53.993Z,10.33
2018-12-31T12:15:22.666Z,11.77
2018-12-31T12:17:51.349Z,10.82
2018-12-31T12:20:19.740Z,11.37
2018-12-31T12:22:48.374Z,10.67
2018-12-31T12:25:16.792Z,14.17
2018-12-31T12:27:45.225Z,12.17
2018-12-31T12:30:13.961Z,13.88
2018-12-31T12:32:42.641Z,12.60
2018-12-31T12:35:11.031Z,12.37
2018-12-31T12:37:39.430Z,13.40
2018-12-31T12:40:07.904Z,11.73
2018-12-31T12:42:36.294Z,11.90
2018-12-31T12:45:05.669Z,12.82
2018-12-31T12:47:34.077Z,13.47
2018-12-31T12:50:02.494Z,13.67
2018-12-31T12:52:30.882Z,11.87
2018-12-31T12:54:59.593Z,12.07
2018-12-31T12:57:28.268Z,11.10
2018-12-31T12:59:56.654Z,13.57
2018-12-31T13:02:25.342Z,11.33
2018-12-31T13:04:53.732Z,11.63
2018-12-31T13:07:22.124Z,11.33
2018-12-31T13:09:50.611Z,10.90
2018-12-31T13:12:19.374Z,11.80
2018-12-31T13:14:48.057Z,11.70
2018-12-31T13:17:16.741Z,11.23
2018-12-31T13:19:45.447Z,11.30
2018-12-31T13:22:13.863Z,11.10
2018-12-31T13:24:42.264Z,10.20
2018-12-31T13:27:10.652Z,10.97
2018-12-31T13:29:39.347Z,10.30
2018-12-31T13:32:07.757Z,11.90
2018-12-31T13:34:36.416Z,11.40
2018-12-31T13:37:04.809Z,12.00
2018-12-31T13:39:33.212Z,9.97
2018-12-31T13:42:01.601Z,9.50
2018-12-31T13:44:29.996Z,9.48
2018-12-31T13:46:58.400Z,9.17
2018-12-31T13:49:26.781Z,8.77
2018-12-31T13:51:55.213Z,7.83
2018-12-31T13:54:23.856Z,9.97
2018-12-31T13:56:52.246Z,11.23
2018-12-31T13:59:20.655Z,11.77
2018-12-31T14:01:49.336Z,11.43
2018-12-31T14:04:17.986Z,12.60
2018-12-31T14:06:46.506Z,12.47
2018-12-31T14:09:14.916Z,12.77
2018-12-31T14:11:43.644Z,12.73
2018-12-31T14:14:15.264Z,12.63
2018-12-31T14:16:43.727Z,12.17
2018-12-31T14:19:12.129Z,11.83
2018-12-31T14:21:40.760Z,13.17
2018-12-31T14:24:09.167Z,13.63
2018-12-31T14:26:37.556Z,11.70
2018-12-31T14:29:05.961Z,11.67
2018-12-31T14:31:34.353Z,12.03
2018-12-31T14:34:03.033Z,12.20
2018-12-31T14:36:31.439Z,11.83
2018-12-31T14:39:00.192Z,12.20
2018-12-31T14:41:28.582Z,12.10
2018-12-31T14:43:57.264Z,11.07
2018-12-31T14:46:25.656Z,10.60
2018-12-31T14:48:54.329Z,10.97
2018-12-31T14:51:23.329Z,11.53
2018-12-31T14:53:51.727Z,12.20
2018-12-31T14:56:20.213Z,11.95
2018-12-31T14:58:48.613Z,12.37
2018-12-31T15:01:17.348Z,11.90
2018-12-31T15:03:45.755Z,11.10
2018-12-31T15:06:14.416Z,11.70
2018-12-31T15:08:42.820Z,11.57
2018-12-31T15:11:11.219Z,14.53
2018-12-31T15:13:39.609Z,12.80
2018-12-31T15:16:08.071Z,12.40
2018-12-31T15:18:36.924Z,12.57
2018-12-31T15:21:05.329Z,12.40
2018-12-31T15:23:33.989Z,12.93
2018-12-31T15:26:02.395Z,12.97
2018-12-31T15:28:30.781Z,13.00
2018-12-31T15:30:59.533Z,14.03
2018-12-31T15:33:27.926Z,14.07
2018-12-31T15:35:56.319Z,15.03
2018-12-31T15:38:25.020Z,15.87
2018-12-31T15:40:53.409Z,16.23
2018-12-31T15:43:23.581Z,19.53
2018-12-31T15:45:52.304Z,27.70
2018-12-31T15:48:20.688Z,29.00
2018-12-31T15:50:49.088Z,25.08
2018-12-31T15:53:17.494Z,19.10
2018-12-31T15:55:47.858Z,18.87
2018-12-31T15:58:16.250Z,19.67
2018-12-31T16:00:44.884Z,18.53
2018-12-31T16:03:13.302Z,17.70
2018-12-31T16:05:41.998Z,18.40
2018-12-31T16:08:10.568Z,18.32
2018-12-31T16:10:38.987Z,17.77
2018-12-31T16:13:07.375Z,19.73
2018-12-31T16:15:35.760Z,19.90
2018-12-31T16:18:05.792Z,18.82
2018-12-31T16:20:34.617Z,20.17
2018-12-31T16:23:03.311Z,21.13
2018-12-31T16:25:31.713Z,21.30
2018-12-31T16:28:00.110Z,22.95
2018-12-31T16:30:28.513Z,22.20
2018-12-31T16:32:56.913Z,19.48
2018-12-31T16:35:25.613Z,20.50
2018-12-31T16:37:54.303Z,21.33
2018-12-31T16:40:23.000Z,19.97
2018-12-31T16:42:51.391Z,18.70
2018-12-31T16:45:20.048Z,20.30
2018-12-31T16:47:48.522Z,22.98
2018-12-31T16:50:16.915Z,21.50
2018-12-31T16:52:45.597Z,30.47
2018-12-31T16:55:14.003Z,24.60
2018-12-31T16:57:42.390Z,24.63
2018-12-31T17:00:11.091Z,23.60
2018-12-31T17:02:39.474Z,22.63
2018-12-31T17:05:07.867Z,23.60
2018-12-31T17:07:36.280Z,24.00
2018-12-31T17:10:07.109Z,25.47
2018-12-31T17:12:35.509Z,22.62
2018-12-31T17:15:04.770Z,23.10
2018-12-31T17:17:33.165Z,23.12
2018-12-31T17:20:01.554Z,23.73
2018-12-31T17:22:29.966Z,24.23
2018-12-31T17:24:58.354Z,27.70
2018-12-31T17:27:26.760Z,24.80
2018-12-31T17:29:55.473Z,26.00
2018-12-31T17:32:23.864Z,22.70
2018-12-31T17:34:52.271Z,24.63
2018-12-31T17:37:20.661Z,26.07
2018-12-31T17:39:49.325Z,25.90
2018-12-31T17:42:17.981Z,22.10
2018-12-31T17:44:46.372Z,23.47
2018-12-31T17:47:14.764Z,22.57
2018-12-31T17:49:43.426Z,26.07
2018-12-31T17:52:11.826Z,21.95
2018-12-31T17:54:40.225Z,23.32
2018-12-31T17:57:08.895Z,23.33
2018-12-31T17:59:37.287Z,23.17
2018-12-31T18:02:05.673Z,24.43
2018-12-31T18:04:34.416Z,28.67
2018-12-31T18:07:03.100Z,26.20
2018-12-31T18:09:31.789Z,31.62
2018-12-31T18:12:00.472Z,32.05
2018-12-31T18:14:28.874Z,27.30
2018-12-31T18:16:57.258Z,27.27
2018-12-31T18:19:25.693Z,26.40
2018-12-31T18:21:54.064Z,27.73
2018-12-31T18:24:22.456Z,26.93
2018-12-31T18:26:50.941Z,28.70
2018-12-31T18:29:19.331Z,27.63
2018-12-31T18:31:48.008Z,28.13
2018-12-31T18:34:16.423Z,28.55
2018-12-31T18:36:45.083Z,29.37
2018-12-31T18:39:13.485Z,30.37
2018-12-31T18:41:42.246Z,30.20
2018-12-31T18:44:10.877Z,30.07
2018-12-31T18:46:39.277Z,32.47
2018-12-31T18:49:07.676Z,33.55
2018-12-31T18:51:36.095Z,34.73
2018-12-31T18:54:04.498Z,36.70
2018-12-31T18:56:32.900Z,38.28
2018-12-31T18:59:01.303Z,42.10
2018-12-31T19:01:29.713Z,40.43
2018-12-31T19:03:58.114Z,38.73
2018-12-31T19:06:26.515Z,37.00
2018-12-31T19:08:54.902Z,34.50
2018-12-31T19:11:24.738Z,34.58
2018-12-31T19:13:53.422Z,34.23
2018-12-31T19:16:21.834Z,34.30
2018-12-31T19:18:50.237Z,35.73
2018-12-31T19:21:18.640Z,36.27
2018-12-31T19:23:47.052Z,37.08
2018-12-31T19:26:15.457Z,34.63
2018-12-31T19:28:43.865Z,36.55
2018-12-31T19:31:12.255Z,35.57
2018-12-31T19:33:40.664Z,36.80
2018-12-31T19:36:09.052Z,33.73
2018-12-31T19:38:37.721Z,34.60
2018-12-31T19:41:06.404Z,34.73
2018-12-31T19:43:34.806Z,34.33
2018-12-31T19:46:03.209Z,35.90
2018-12-31T19:48:31.617Z,35.30
2018-12-31T19:51:00.488Z,34.92
2018-12-31T19:53:28.904Z,36.30
2018-12-31T19:55:57.909Z,33.83
2018-12-31T19:58:26.875Z,38.42
2018-12-31T20:00:55.409Z,34.80
2018-12-31T20:03:23.799Z,37.97
2018-12-31T20:05:52.192Z,38.95
2018-12-31T20:08:20.608Z,40.33
2018-12-31T20:10:49.004Z,43.07
2018-12-31T20:13:17.684Z,42.95
2018-12-31T20:15:48.698Z,38.23
2018-12-31T20:18:16.213Z,39.40
2018-12-31T20:20:44.600Z,41.60
2018-12-31T20:23:13.016Z,42.90
2018-12-31T20:25:41.415Z,40.95
2018-12-31T20:28:09.826Z,41.98
2018-12-31T20:30:38.641Z,43.10
2018-12-31T20:33:07.377Z,43.60
2018-12-31T20:35:35.793Z,44.40
2018-12-31T20:38:04.191Z,49.93
2018-12-31T20:40:32.610Z,132.35
2018-12-31T20:43:01.304Z,82.82
2018-12-31T20:45:30.299Z,77.50
2018-12-31T20:48:01.950Z,79.22
2018-12-31T20:50:28.826Z,82.75
2018-12-31T20:52:57.234Z,82.33
2018-12-31T20:55:26.852Z,74.77
2018-12-31T20:57:55.575Z,78.30
2018-12-31T21:00:23.979Z,76.13
2018-12-31T21:02:52.397Z,74.22
2018-12-31T21:05:21.127Z,76.87
2018-12-31T21:07:49.536Z,76.42
2018-12-31T21:10:18.014Z,67.78
2018-12-31T21:12:47.069Z,67.87
2018-12-31T21:15:16.389Z,74.20
2018-12-31T21:17:44.848Z,71.30
2018-12-31T21:20:13.536Z,68.30
2018-12-31T21:22:41.955Z,65.75
2018-12-31T21:25:10.548Z,68.07
2018-12-31T21:27:38.957Z,73.00
2018-12-31T21:30:09.987Z,69.80
2018-12-31T21:32:38.388Z,72.40
2018-12-31T21:35:07.627Z,70.05
2018-12-31T21:37:36.294Z,74.47
2018-12-31T21:40:07.478Z,73.80
2018-12-31T21:42:35.878Z,75.37
2018-12-31T21:45:05.065Z,75.45
2018-12-31T21:47:33.737Z,76.97
2018-12-31T21:50:02.111Z,74.40
2018-12-31T21:52:30.518Z,80.83
2018-12-31T21:54:58.961Z,82.92
2018-12-31T21:57:27.379Z,92.57
2018-12-31T21:59:55.781Z,89.85
2018-12-31T22:02:24.198Z,95.40
2018-12-31T22:04:53.264Z,97.75
2018-12-31T22:07:21.673Z,102.70
2018-12-31T22:09:50.081Z,98.57
2018-12-31T22:12:18.720Z,101.87
2018-12-31T22:14:47.127Z,103.00
2018-12-31T22:17:15.877Z,110.70
2018-12-31T22:19:44.558Z,110.00
2018-12-31T22:22:12.967Z,111.32
2018-12-31T22:24:41.366Z,104.57
2018-12-31T22:27:10.107Z,107.65
2018-12-31T22:29:38.514Z,101.55
2018-12-31T22:32:07.001Z,109.95
2018-12-31T22:34:35.412Z,104.70
2018-12-31T22:37:04.059Z,103.80
2018-12-31T22:39:32.463Z,97.30
2018-12-31T22:42:00.879Z,98.90
2018-12-31T22:44:29.277Z,107.57
2018-12-31T22:46:57.681Z,129.85
2018-12-31T22:49:26.436Z,113.23
2018-12-31T22:51:54.901Z,124.97
2018-12-31T22:54:23.298Z,133.90
2018-12-31T22:56:51.716Z,131.83
2018-12-31T22:59:20.113Z,140.87
2018-12-31T23:01:48.591Z,116.62
2018-12-31T23:04:17.003Z,124.97
2018-12-31T23:06:45.407Z,129.40
2018-12-31T23:09:14.079Z,171.27
2018-12-31T23:11:42.779Z,177.15
2018-12-31T23:14:11.183Z,169.13
2018-12-31T23:16:39.930Z,258.73
2018-12-31T23:19:08.347Z,348.13
2018-12-31T23:21:36.759Z,433.18
2018-12-31T23:24:05.456Z,425.20
2018-12-31T23:26:33.858Z,441.95
2018-12-31T23:29:02.276Z,325.68
2018-12-31T23:31:30.685Z,327.85
2018-12-31T23:33:59.095Z,362.47
2018-12-31T23:36:27.512Z,456.32
2018-12-31T23:38:55.921Z,438.13
2018-12-31T23:41:24.361Z,583.17
2018-12-31T23:43:53.036Z,690.58
2018-12-31T23:46:21.722Z,690.62
2018-12-31T23:48:50.192Z,758.83
2018-12-31T23:51:19.180Z,738.52
2018-12-31T23:53:47.869Z,806.05
2018-12-31T23:56:16.278Z,810.25
2018-12-31T23:58:44.706Z,821.48
